Time;durP1;ratioP1;P1;durP2;ratioP2;P2;SDS_P1;SDS_P2;PMS_P1;PMS_P2;Temp;Humidity;BMP_temperature;BMP_pressure;BME280_temperature;BME280_humidity;BME280_pressure;Samples;Min_cycle;Max_cycle;Signal;HPM_P1;HPM_P2
2022/05/08 00:00:14;;;;;;;19.17;5.20;;;12.80;64.00;;;;;;9168411;19;20006;-71
2022/05/08 00:03:21;;;;;;;29.33;5.35;;;12.70;64.10;;;;;;9179572;19;20086;-71
2022/05/08 00:06:34;;;;;;;28.27;5.72;;;12.60;64.10;;;;;;9179513;19;20355;-72
2022/05/08 00:09:40;;;;;;;18.15;4.80;;;12.60;64.10;;;;;;9176814;19;20355;-71
2022/05/08 00:12:45;;;;;;;19.15;5.28;;;12.50;64.10;;;;;;9176508;19;20037;-71
2022/05/08 00:15:52;;;;;;;31.05;5.70;;;12.50;64.10;;;;;;9176089;19;20010;-70
2022/05/08 00:18:59;;;;;;;21.13;4.70;;;12.40;64.10;;;;;;9179844;19;20082;-70
2022/05/08 00:22:05;;;;;;;21.00;4.45;;;12.40;64.20;;;;;;9177495;19;20014;-71
2022/05/08 00:25:31;;;;;;;23.55;4.65;;;12.40;64.20;;;;;;9179561;19;20018;-70
2022/05/08 00:28:36;;;;;;;20.35;5.50;;;12.30;64.20;;;;;;9178774;19;20029;-71
2022/05/08 00:31:41;;;;;;;19.35;4.40;;;12.30;64.30;;;;;;9174620;19;20014;-70
2022/05/08 00:34:49;;;;;;;26.90;5.30;;;12.20;64.30;;;;;;9176196;19;20015;-71
2022/05/08 00:37:54;;;;;;;28.73;5.07;;;12.10;64.40;;;;;;9177367;19;20445;-71
2022/05/08 00:40:59;;;;;;;24.95;5.40;;;12.10;64.40;;;;;;9176724;19;20510;-71
2022/05/08 00:44:06;;;;;;;29.83;5.28;;;12.10;64.60;;;;;;9173091;19;20005;-71
2022/05/08 00:47:11;;;;;;;29.23;5.57;;;12.10;64.50;;;;;;9176848;19;20019;-70
2022/05/08 00:50:19;;;;;;;28.75;5.13;;;12.00;64.40;;;;;;9175178;19;20056;-71
2022/05/08 00:53:28;;;;;;;29.33;6.00;;;12.00;64.60;;;;;;9177924;19;20028;-71
2022/05/08 00:56:44;;;;;;;31.13;5.53;;;12.00;64.50;;;;;;9175260;19;20367;-71
2022/05/08 00:59:49;;;;;;;26.15;5.57;;;11.90;64.50;;;;;;9175709;19;20029;-70
2022/05/08 01:02:54;;;;;;;22.85;5.15;;;11.90;64.50;;;;;;9174410;19;20483;-71
2022/05/08 01:06:06;;;;;;;28.80;4.95;;;11.90;64.50;;;;;;9178617;19;20065;-70
2022/05/08 01:09:11;;;;;;;21.70;4.80;;;11.90;64.70;;;;;;9175889;19;20022;-70
2022/05/08 01:12:17;;;;;;;19.63;5.22;;;11.90;64.60;;;;;;9175263;19;20014;-71
2022/05/08 01:15:22;;;;;;;27.52;5.18;;;11.80;64.60;;;;;;9175754;19;20090;-71
2022/05/08 01:18:28;;;;;;;31.55;6.07;;;11.80;64.70;;;;;;9176050;19;20037;-71
2022/05/08 01:21:41;;;;;;;23.77;4.93;;;11.70;64.70;;;;;;9174963;19;20010;-71
2022/05/08 01:24:48;;;;;;;22.42;4.60;;;11.70;64.80;;;;;;9177050;19;20131;-70
2022/05/08 01:27:53;;;;;;;28.88;5.03;;;11.70;64.80;;;;;;9175421;19;20093;-71
2022/05/08 01:31:01;;;;;;;22.25;5.07;;;11.70;64.80;;;;;;9175030;19;20030;-70
2022/05/08 01:34:06;;;;;;;29.08;5.40;;;11.60;64.80;;;;;;9177899;19;20111;-71
2022/05/08 01:37:16;;;;;;;32.25;6.43;;;11.60;64.80;;;;;;9172401;19;20018;-71
2022/05/08 01:40:21;;;;;;;29.58;4.93;;;11.60;64.90;;;;;;9175413;19;20014;-71
2022/05/08 01:43:31;;;;;;;24.45;4.72;;;11.60;64.80;;;;;;9175772;19;20035;-71
2022/05/08 01:46:36;;;;;;;26.67;4.70;;;11.60;64.40;;;;;;9182018;19;20014;-71
2022/05/08 01:49:39;;;;;;;29.00;5.82;;;11.60;64.90;;;;;;9182864;19;20022;-71
2022/05/08 01:52:47;;;;;;;19.23;5.18;;;11.50;64.90;;;;;;9185690;19;20006;-71
2022/05/08 01:55:54;;;;;;;33.58;5.47;;;11.50;65.00;;;;;;9183617;19;20014;-70
2022/05/08 01:59:00;;;;;;;23.83;4.90;;;11.50;65.00;;;;;;9183543;19;20056;-70
2022/05/08 02:02:08;;;;;;;27.45;5.45;;;11.50;65.10;;;;;;9185387;19;20025;-70
2022/05/08 02:05:13;;;;;;;24.10;4.35;;;11.50;65.00;;;;;;9181303;19;20010;-71
2022/05/08 02:08:22;;;;;;;24.15;5.03;;;11.50;65.00;;;;;;9183604;19;20023;-71
2022/05/08 02:11:31;;;;;;;23.98;4.75;;;11.40;65.00;;;;;;9181301;19;20305;-70
2022/05/08 02:14:39;;;;;;;26.48;5.28;;;11.40;65.00;;;;;;9184140;19;20018;-71
2022/05/08 02:17:44;;;;;;;23.63;4.40;;;11.40;65.00;;;;;;9182573;19;20014;-71
2022/05/08 02:20:49;;;;;;;29.77;5.47;;;11.40;65.10;;;;;;9183658;19;20011;-70
2022/05/08 02:23:57;;;;;;;30.25;5.28;;;11.40;65.10;;;;;;9183649;19;20048;-70
2022/05/08 02:27:02;;;;;;;28.42;4.88;;;11.40;65.20;;;;;;9181430;19;20014;-71
2022/05/08 02:30:13;;;;;;;31.83;7.80;;;11.30;65.10;;;;;;9182296;19;20010;-71
2022/05/08 02:33:18;;;;;;;29.67;5.10;;;11.30;65.30;;;;;;9181861;19;20018;-70
2022/05/08 02:36:23;;;;;;;29.35;5.13;;;11.30;65.20;;;;;;9181980;19;20018;-70
2022/05/08 02:39:31;;;;;;;29.48;5.57;;;11.30;65.30;;;;;;9183024;19;20017;-71
2022/05/08 02:42:39;;;;;;;25.98;5.20;;;11.30;65.30;;;;;;9176225;19;20019;-70
2022/05/08 02:45:44;;;;;;;23.52;4.45;;;11.20;65.30;;;;;;9180955;19;20015;-70
2022/05/08 02:48:49;;;;;;;40.17;7.00;;;11.20;65.30;;;;;;9181103;19;20036;-71
2022/05/08 02:51:56;;;;;;;27.70;5.68;;;11.20;65.40;;;;;;9183632;19;20407;-72
2022/05/08 02:58:32;;;;;;;24.02;5.20;;;11.20;65.30;;;;;;9179438;19;20013;-71
2022/05/08 02:58:32;;;;;;;27.92;4.78;;;11.20;65.40;;;;;;9181708;19;20018;-70
2022/05/08 03:01:37;;;;;;;28.67;5.53;;;11.10;65.30;;;;;;9182828;19;20010;-69
2022/05/08 03:04:46;;;;;;;30.42;5.78;;;11.10;65.30;;;;;;9179155;19;20007;-70
2022/05/08 03:07:51;;;;;;;24.10;4.15;;;11.10;65.40;;;;;;9182490;19;20018;-71
2022/05/08 03:14:20;;;;;;;28.45;5.15;;;11.10;65.50;;;;;;9180902;19;20021;-70
2022/05/08 03:17:26;;;;;;;29.35;4.75;;;11.10;65.40;;;;;;9179812;19;20025;-73
2022/05/08 03:20:31;;;;;;;24.75;5.13;;;11.00;65.40;;;;;;9180896;19;20007;-70
2022/05/08 03:23:36;;;;;;;30.25;4.97;;;11.00;65.50;;;;;;9180653;19;20426;-70
2022/05/08 03:26:44;;;;;;;34.80;4.28;;;11.00;65.50;;;;;;9179174;19;20513;-72
2022/05/08 03:29:50;;;;;;;28.52;5.03;;;10.90;65.60;;;;;;9179731;19;20025;-71
2022/05/08 03:32:55;;;;;;;23.38;4.30;;;10.90;65.50;;;;;;9180558;19;20117;-70
2022/05/08 03:36:01;;;;;;;31.05;5.10;;;10.90;65.50;;;;;;9181726;19;20023;-70
2022/05/08 03:39:06;;;;;;;19.15;4.65;;;10.90;65.60;;;;;;9177993;19;20533;-70
2022/05/08 03:42:13;;;;;;;25.13;5.10;;;10.90;65.60;;;;;;9177408;19;20082;-71
2022/05/08 03:45:19;;;;;;;20.27;3.95;;;10.80;65.60;;;;;;9178431;19;20480;-71
2022/05/08 03:48:24;;;;;;;25.58;4.50;;;10.80;65.60;;;;;;9179231;19;20415;-69
2022/05/08 03:51:30;;;;;;;24.20;5.95;;;10.80;65.60;;;;;;9180325;19;20011;-72
2022/05/08 03:54:35;;;;;;;28.73;5.25;;;10.80;65.70;;;;;;9180498;19;20029;-70
2022/05/08 03:57:42;;;;;;;26.60;5.13;;;10.70;65.70;;;;;;9179890;19;20010;-71
2022/05/08 04:00:48;;;;;;;25.88;4.93;;;10.70;65.70;;;;;;9180707;19;20014;-71
2022/05/08 04:03:53;;;;;;;38.28;5.82;;;10.70;65.70;;;;;;9178002;19;20398;-70
2022/05/08 04:06:58;;;;;;;31.75;5.10;;;10.60;65.70;;;;;;9180322;19;20011;-71
2022/05/08 04:10:03;;;;;;;28.17;5.00;;;10.60;65.70;;;;;;9179171;19;20750;-71
2022/05/08 04:13:12;;;;;;;30.95;4.85;;;10.60;65.70;;;;;;9177992;19;20590;-70
2022/05/08 04:16:21;;;;;;;28.98;5.75;;;10.60;65.80;;;;;;9179405;19;20912;-70
2022/05/08 04:19:27;;;;;;;25.15;4.63;;;10.60;65.80;;;;;;9177996;19;20085;-71
2022/05/08 04:25:53;;;;;;;34.17;5.30;;;10.50;65.90;;;;;;9177089;19;20013;-70
2022/05/08 04:29:01;;;;;;;23.90;4.85;;;10.50;65.90;;;;;;9180003;19;20011;-71
2022/05/08 04:32:09;;;;;;;26.00;4.97;;;10.50;65.90;;;;;;9177691;19;20009;-71
2022/05/08 04:35:14;;;;;;;28.30;6.07;;;10.50;66.00;;;;;;9176502;19;20352;-69
2022/05/08 04:38:22;;;;;;;36.97;5.22;;;10.40;66.00;;;;;;9176681;19;20476;-71
2022/05/08 04:41:27;;;;;;;32.60;4.10;;;10.40;66.00;;;;;;9174062;19;20452;-70
2022/05/08 04:44:35;;;;;;;24.00;5.18;;;10.40;66.00;;;;;;9181438;19;20094;-70
2022/05/08 04:47:40;;;;;;;25.23;5.68;;;10.40;66.10;;;;;;9180812;19;20018;-70
2022/05/08 04:50:45;;;;;;;37.30;5.53;;;10.40;66.10;;;;;;9179234;19;20078;-69
2022/05/08 04:53:50;;;;;;;20.65;5.38;;;10.40;66.10;;;;;;9178261;19;20026;-70
2022/05/08 04:56:57;;;;;;;28.90;5.50;;;10.40;66.20;;;;;;9178848;19;20034;-69
2022/05/08 05:00:13;;;;;;;22.95;4.80;;;10.40;66.20;;;;;;9178861;19;20022;-70
2022/05/08 05:03:21;;;;;;;26.40;4.20;;;10.30;66.20;;;;;;9177899;19;20033;-70
2022/05/08 05:06:26;;;;;;;25.13;4.55;;;10.30;66.30;;;;;;9178222;19;20325;-70
2022/05/08 05:09:32;;;;;;;27.35;4.43;;;10.30;66.20;;;;;;9181078;19;20586;-70
2022/05/08 05:12:37;;;;;;;37.40;6.22;;;10.30;66.30;;;;;;9178773;19;20467;-71
2022/05/08 05:15:45;;;;;;;31.67;5.03;;;10.30;66.30;;;;;;9177916;19;20017;-71
2022/05/08 05:18:50;;;;;;;28.33;6.00;;;10.30;66.40;;;;;;9179778;19;20086;-70
2022/05/08 05:21:55;;;;;;;22.80;5.18;;;10.30;66.40;;;;;;9188089;19;20716;-70
2022/05/08 05:25:03;;;;;;;27.60;5.13;;;10.30;66.40;;;;;;9187177;19;20021;-70
2022/05/08 05:28:09;;;;;;;27.55;5.50;;;10.30;66.50;;;;;;9187377;19;20790;-71
2022/05/08 05:31:17;;;;;;;22.58;4.45;;;10.30;66.50;;;;;;9186679;19;20467;-69
2022/05/08 05:34:22;;;;;;;28.13;4.90;;;10.40;66.60;;;;;;9186681;19;20018;-70
2022/05/08 05:37:27;;;;;;;28.08;5.03;;;10.40;66.60;;;;;;9186231;19;20028;-69
2022/05/08 05:40:32;;;;;;;31.35;5.88;;;10.40;66.60;;;;;;9187923;19;20565;-70
2022/05/08 05:43:37;;;;;;;24.63;4.18;;;10.40;66.60;;;;;;9181759;19;20482;-69
2022/05/08 05:50:05;;;;;;;27.40;5.45;;;10.50;66.90;;;;;;9187645;19;20443;-69
2022/05/08 05:53:10;;;;;;;27.38;5.18;;;10.60;66.80;;;;;;9185642;19;20111;-70
2022/05/08 05:56:18;;;;;;;17.98;4.05;;;10.70;66.80;;;;;;9180708;19;20108;-70
2022/05/08 05:59:23;;;;;;;22.02;4.72;;;10.80;66.90;;;;;;9184026;19;20058;-69
2022/05/08 06:02:47;;;;;;;22.88;4.30;;;10.90;66.90;;;;;;9179395;19;20006;-69
2022/05/08 06:05:55;;;;;;;29.08;4.43;;;11.00;66.90;;;;;;9182134;19;20033;-69
2022/05/08 06:09:00;;;;;;;18.77;3.83;;;11.10;66.80;;;;;;9187611;19;20014;-70
2022/05/08 06:12:06;;;;;;;24.52;4.28;;;11.30;66.80;;;;;;9186843;19;20033;-70
2022/05/08 06:15:12;;;;;;;18.75;3.50;;;11.40;66.70;;;;;;9184760;19;20360;-69
2022/05/08 06:18:20;;;;;;;19.80;4.50;;;11.50;66.60;;;;;;9179074;19;20018;-69
2022/05/08 06:21:25;;;;;;;23.45;4.43;;;11.60;66.60;;;;;;9184654;19;20082;-70
2022/05/08 06:24:31;;;;;;;15.73;3.65;;;11.80;66.40;;;;;;9187169;19;20011;-70
2022/05/08 06:27:36;;;;;;;18.60;3.40;;;12.00;66.30;;;;;;9179517;19;20019;-70
2022/05/08 06:30:41;;;;;;;15.73;2.70;;;12.10;66.20;;;;;;9182665;19;20360;-70
2022/05/08 06:33:49;;;;;;;19.98;3.25;;;12.30;66.10;;;;;;9184346;19;20010;-70
2022/05/08 06:36:54;;;;;;;18.00;3.05;;;12.40;65.90;;;;;;9183183;19;20364;-70
2022/05/08 06:40:00;;;;;;;18.50;2.97;;;12.60;65.70;;;;;;9185440;19;20013;-70
2022/05/08 06:43:06;;;;;;;15.20;2.90;;;12.70;65.50;;;;;;9179668;19;20011;-71
2022/05/08 06:46:12;;;;;;;13.57;2.35;;;12.80;65.20;;;;;;9183966;19;20027;-70
2022/05/08 06:49:20;;;;;;;17.77;2.85;;;13.00;65.10;;;;;;9183487;19;20026;-70
2022/05/08 06:52:25;;;;;;;21.73;2.95;;;13.10;64.90;;;;;;9183465;19;20046;-70
2022/05/08 06:55:30;;;;;;;13.35;2.85;;;13.20;64.70;;;;;;9184516;19;20038;-71
2022/05/08 07:01:34;;;;;;;18.38;2.92;;;13.30;64.60;;;;;;9182747;19;20026;-70
2022/05/08 07:02:07;;;;;;;15.32;2.67;;;13.50;64.40;;;;;;9182683;19;20010;-71
2022/05/08 07:05:15;;;;;;;12.88;3.03;;;13.60;64.20;;;;;;9180811;19;20073;-69
2022/05/08 07:08:20;;;;;;;15.10;3.20;;;13.70;63.90;;;;;;9184456;19;20379;-69
2022/05/08 07:11:26;;;;;;;13.15;2.80;;;13.90;63.90;;;;;;9183100;19;20026;-69
2022/05/08 07:14:31;;;;;;;16.10;2.30;;;14.00;63.70;;;;;;9181910;19;20383;-70
2022/05/08 07:17:37;;;;;;;15.93;2.38;;;14.10;63.60;;;;;;9182887;19;20044;-70
2022/05/08 07:20:44;;;;;;;10.18;2.40;;;14.30;63.40;;;;;;9182988;19;20675;-68
2022/05/08 07:23:50;;;;;;;15.27;3.20;;;14.40;63.20;;;;;;9181286;19;20495;-70
2022/05/08 07:26:57;;;;;;;15.57;3.05;;;14.60;63.10;;;;;;9182238;19;20391;-70
2022/05/08 07:30:02;;;;;;;16.55;2.58;;;14.70;62.90;;;;;;9183596;19;20109;-70
2022/05/08 07:33:10;;;;;;;13.25;2.10;;;14.80;62.60;;;;;;9179084;19;20015;-69
2022/05/08 07:36:18;;;;;;;12.45;2.13;;;14.90;62.40;;;;;;9176891;19;20018;-70
2022/05/08 07:39:26;;;;;;;16.90;3.08;;;15.00;62.00;;;;;;9174945;19;20033;-70
2022/05/08 07:42:33;;;;;;;10.63;1.88;;;15.10;62.00;;;;;;9171950;19;20485;-70
2022/05/08 07:45:38;;;;;;;10.18;2.53;;;15.10;61.80;;;;;;9178797;19;20036;-70
2022/05/08 07:48:45;;;;;;;14.93;2.22;;;15.20;61.70;;;;;;9180915;19;20011;-70
2022/05/08 07:51:53;;;;;;;18.90;2.65;;;15.30;61.60;;;;;;9180532;19;20015;-71
2022/05/08 07:54:58;;;;;;;8.07;1.92;;;15.40;61.30;;;;;;9180303;19;20048;-70
2022/05/08 07:58:03;;;;;;;9.23;1.70;;;15.50;61.20;;;;;;9173441;19;20044;-68
2022/05/08 08:01:08;;;;;;;9.00;2.08;;;15.60;61.10;;;;;;9178154;19;20022;-69
2022/05/08 08:04:13;;;;;;;14.52;2.47;;;15.70;60.90;;;;;;9176020;19;20017;-68
2022/05/08 08:07:21;;;;;;;8.40;1.90;;;15.80;60.80;;;;;;9172997;19;20090;-70
2022/05/08 08:10:26;;;;;;;13.80;3.58;;;15.90;60.60;;;;;;9175146;19;20015;-70
2022/05/08 08:13:32;;;;;;;12.48;2.33;;;16.10;60.60;;;;;;9177131;19;20017;-68
2022/05/08 08:16:39;;;;;;;15.93;2.30;;;16.20;60.40;;;;;;9171268;19;20045;-71
2022/05/08 08:19:47;;;;;;;21.25;2.15;;;16.30;60.20;;;;;;9166898;19;20020;-68
2022/05/08 08:22:55;;;;;;;7.93;2.25;;;16.40;59.90;;;;;;9171483;19;20368;-69
2022/05/08 08:26:02;;;;;;;7.80;1.85;;;16.60;59.70;;;;;;9169532;19;20056;-68
2022/05/08 08:29:07;;;;;;;10.52;3.05;;;16.60;59.50;;;;;;9166853;19;20022;-68
2022/05/08 08:32:12;;;;;;;10.75;2.20;;;16.70;59.30;;;;;;9170359;19;20737;-68
2022/05/08 08:35:20;;;;;;;13.63;2.20;;;16.80;59.20;;;;;;9170799;19;20051;-68
2022/05/08 08:38:28;;;;;;;9.38;1.95;;;16.90;59.00;;;;;;9174916;19;20011;-66
2022/05/08 08:41:44;;;;;;;14.13;2.17;;;17.00;58.80;;;;;;9169052;19;20093;-69
2022/05/08 08:48:27;;;;;;;9.00;1.88;;;17.30;58.60;;;;;;9175710;19;20026;-71
2022/05/08 08:51:33;;;;;;;9.35;2.50;;;17.40;58.30;;;;;;9175000;19;20052;-69
2022/05/08 08:54:44;;;;;;;11.30;1.90;;;17.50;58.20;;;;;;9173108;19;20014;-68
2022/05/08 08:57:50;;;;;;;7.93;1.90;;;17.70;58.00;;;;;;9176341;19;20018;-69
2022/05/08 09:00:59;;;;;;;7.00;2.35;;;17.80;57.80;;;;;;9176557;19;20019;-67
2022/05/08 09:04:07;;;;;;;10.77;2.00;;;18.10;57.00;;;;;;9175547;19;20332;-69
2022/05/08 09:07:38;;;;;;;11.25;2.60;;;18.00;57.40;;;;;;9171806;19;20022;-67
2022/05/08 09:10:46;;;;;;;9.65;1.92;;;18.20;57.00;;;;;;9176049;19;20379;-68
2022/05/08 09:13:52;;;;;;;11.05;2.25;;;18.30;57.20;;;;;;9176713;19;20022;-68
2022/05/08 09:16:58;;;;;;;13.27;2.67;;;18.40;57.10;;;;;;9175747;19;20100;-69
2022/05/08 09:20:05;;;;;;;12.23;1.83;;;18.50;56.90;;;;;;9172918;19;20010;-67
2022/05/08 09:23:15;;;;;;;13.75;2.40;;;18.60;56.70;;;;;;9178457;19;20019;-68
2022/05/08 09:26:30;;;;;;;10.75;1.98;;;18.80;56.50;;;;;;9168267;19;20025;-69
2022/05/08 09:29:35;;;;;;;10.80;1.70;;;18.80;56.00;;;;;;9175085;19;20010;-69
2022/05/08 09:33:01;;;;;;;9.52;1.80;;;18.80;56.00;;;;;;9175211;19;20022;-70
2022/05/08 09:36:11;;;;;;;9.93;1.85;;;19.00;56.00;;;;;;9175066;19;20007;-68
2022/05/08 09:39:24;;;;;;;11.82;1.85;;;19.10;55.80;;;;;;9172140;19;20019;-69
2022/05/08 09:42:41;;;;;;;16.63;2.33;;;19.20;55.40;;;;;;9172640;19;20478;-68
2022/05/08 09:45:59;;;;;;;13.38;1.95;;;19.30;55.00;;;;;;9172399;19;20348;-69
2022/05/08 09:49:05;;;;;;;17.33;2.70;;;19.40;54.90;;;;;;9175096;19;20014;-69
2022/05/08 09:52:10;;;;;;;12.35;2.40;;;19.50;55.10;;;;;;9172010;19;20437;-68
2022/05/08 09:55:16;;;;;;;9.43;1.98;;;19.60;54.80;;;;;;9172689;19;20018;-67
2022/05/08 09:58:25;;;;;;;15.93;2.58;;;19.70;54.40;;;;;;9171125;19;20018;-67
2022/05/08 10:01:30;;;;;;;9.65;1.65;;;19.60;54.20;;;;;;9172864;19;20018;-69
2022/05/08 10:04:36;;;;;;;9.82;2.00;;;19.70;54.20;;;;;;9175122;19;20010;-68
2022/05/08 10:07:45;;;;;;;10.23;2.05;;;19.80;54.00;;;;;;9180298;19;20530;-70
2022/05/08 10:14:27;;;;;;;10.18;1.92;;;19.80;53.50;;;;;;9182657;19;20010;-69
2022/05/08 10:17:35;;;;;;;18.63;2.00;;;19.90;53.30;;;;;;9185362;19;20480;-68
2022/05/08 10:21:03;;;;;;;10.50;1.98;;;20.00;53.60;;;;;;9181166;19;20052;-69
2022/05/08 10:24:31;;;;;;;9.27;2.10;;;20.10;52.80;;;;;;9181289;19;20355;-68
2022/05/08 10:27:37;;;;;;;12.45;1.90;;;20.20;52.70;;;;;;9182324;19;20021;-70
2022/05/08 10:30:45;;;;;;;6.35;1.55;;;20.30;53.00;;;;;;9177354;19;20018;-68
2022/05/08 10:34:19;;;;;;;6.57;1.38;;;20.40;52.80;;;;;;9183185;19;20084;-67
2022/05/08 10:37:31;;;;;;;8.50;2.40;;;20.50;52.20;;;;;;9182688;19;20025;-69
2022/05/08 10:40:37;;;;;;;6.97;2.00;;;20.50;52.10;;;;;;9179919;19;20022;-69
2022/05/08 10:43:42;;;;;;;8.07;1.92;;;20.60;52.10;;;;;;9175593;19;20027;-68
2022/05/08 10:46:50;;;;;;;8.43;1.85;;;20.70;52.00;;;;;;9178397;19;20568;-68
2022/05/08 10:49:58;;;;;;;12.48;2.25;;;20.70;51.60;;;;;;9179663;19;20018;-69
2022/05/08 10:53:05;;;;;;;14.02;1.67;;;20.80;51.60;;;;;;9178598;19;20049;-70
2022/05/08 10:56:13;;;;;;;8.05;2.20;;;20.80;51.30;;;;;;9177810;19;20025;-70
2022/05/08 10:59:18;;;;;;;12.38;2.28;;;21.60;51.50;;;;;;9178567;19;20025;-70
2022/05/08 11:02:46;;;;;;;13.02;1.98;;;20.90;51.10;;;;;;9179509;19;20018;-70
2022/05/08 11:05:55;;;;;;;8.73;1.80;;;21.00;50.70;;;;;;9175636;19;20056;-70
2022/05/08 11:09:03;;;;;;;13.20;1.88;;;21.10;51.00;;;;;;9176221;19;20543;-71
2022/05/08 11:12:09;;;;;;;7.80;1.80;;;21.00;50.60;;;;;;9177615;19;20018;-68
2022/05/08 11:15:16;;;;;;;5.10;1.60;;;21.30;50.50;;;;;;9175932;19;20101;-69
2022/05/08 11:18:25;;;;;;;8.10;1.85;;;21.40;50.30;;;;;;9173718;19;20022;-69
2022/05/08 11:21:31;;;;;;;9.93;1.85;;;21.50;49.90;;;;;;9173037;19;20502;-69
2022/05/08 11:24:36;;;;;;;7.40;1.73;;;21.50;50.10;;;;;;9176098;19;20022;-70
2022/05/08 11:27:42;;;;;;;7.53;1.63;;;21.60;49.80;;;;;;9176220;19;20022;-69
2022/05/08 11:30:50;;;;;;;6.43;1.60;;;21.60;49.40;;;;;;9175220;19;20011;-70
2022/05/08 11:37:22;;;;;;;15.02;2.53;;;21.70;48.80;;;;;;9180477;19;20029;-67
2022/05/08 11:40:28;;;;;;;7.78;1.77;;;21.70;48.70;;;;;;9182452;19;20517;-69
2022/05/08 11:43:40;;;;;;;11.13;2.05;;;21.60;48.60;;;;;;9180976;19;20020;-69
2022/05/08 11:46:50;;;;;;;12.82;2.00;;;21.60;48.30;;;;;;9181220;19;20006;-69
2022/05/08 11:49:58;;;;;;;6.35;1.50;;;21.70;48.60;;;;;;9182338;19;20511;-69
2022/05/08 11:53:04;;;;;;;9.77;2.05;;;21.70;48.40;;;;;;9184020;19;20033;-71
2022/05/08 11:56:26;;;;;;;9.15;1.90;;;21.70;48.40;;;;;;9182339;19;20016;-68
2022/05/08 11:59:38;;;;;;;10.02;2.58;;;21.80;47.90;;;;;;9180548;19;20029;-72
2022/05/08 12:02:46;;;;;;;9.75;2.15;;;21.80;47.90;;;;;;9176210;19;20018;-70
2022/05/08 12:06:12;;;;;;;9.05;1.77;;;21.90;48.00;;;;;;9172250;19;20419;-68
2022/05/08 12:09:18;;;;;;;5.45;1.70;;;21.90;47.50;;;;;;9171928;19;20111;-68
2022/05/08 12:12:25;;;;;;;5.28;1.65;;;21.90;47.90;;;;;;9172248;19;20022;-68
2022/05/08 12:15:32;;;;;;;7.18;1.70;;;21.90;47.70;;;;;;9175934;19;20133;-69
2022/05/08 12:18:37;;;;;;;10.23;2.25;;;22.00;47.70;;;;;;9175370;19;20014;-69
2022/05/08 12:21:46;;;;;;;7.13;1.67;;;22.00;47.50;;;;;;9177981;19;20025;-72
2022/05/08 12:24:51;;;;;;;10.52;2.15;;;22.10;47.20;;;;;;9177993;19;20011;-68
2022/05/08 12:27:56;;;;;;;6.28;1.50;;;22.10;47.20;;;;;;9178988;19;20018;-69
2022/05/08 12:31:01;;;;;;;7.45;1.50;;;22.20;47.10;;;;;;9177185;19;20135;-69
2022/05/08 12:34:10;;;;;;;7.65;2.05;;;22.20;46.90;;;;;;9175619;19;20127;-72
2022/05/08 12:37:19;;;;;;;12.55;1.55;;;22.30;46.90;;;;;;9176092;19;20061;-69
2022/05/08 12:40:25;;;;;;;12.98;2.10;;;22.30;46.40;;;;;;9177240;19;20026;-70
2022/05/08 12:43:31;;;;;;;6.93;2.00;;;22.30;46.50;;;;;;9174200;19;20375;-70
2022/05/08 12:46:40;;;;;;;9.27;2.15;;;22.30;46.30;;;;;;9175493;19;20022;-70
2022/05/08 12:49:45;;;;;;;9.75;1.88;;;22.40;46.20;;;;;;9175193;19;20030;-68
2022/05/08 12:52:56;;;;;;;8.48;1.70;;;22.40;46.00;;;;;;9175658;19;20022;-67
2022/05/08 12:56:01;;;;;;;9.05;2.10;;;22.30;45.70;;;;;;9176216;19;20015;-69
2022/05/08 13:02:26;;;;;;;5.13;1.50;;;22.30;45.70;;;;;;9175493;19;20049;-68
2022/05/08 13:05:32;;;;;;;6.25;1.83;;;22.20;45.50;;;;;;9176931;19;20122;-69
2022/05/08 13:08:40;;;;;;;8.02;1.88;;;22.20;45.50;;;;;;9178099;19;20011;-67
2022/05/08 13:11:45;;;;;;;6.15;1.90;;;22.10;45.30;;;;;;9177180;19;20018;-69
2022/05/08 13:14:51;;;;;;;6.63;1.80;;;22.10;45.40;;;;;;9175374;19;20035;-68
2022/05/08 13:18:00;;;;;;;6.13;1.48;;;22.10;45.30;;;;;;9176471;19;20010;-69
2022/05/08 13:21:06;;;;;;;10.23;1.70;;;22.20;45.30;;;;;;9174122;19;20010;-68
2022/05/08 13:24:16;;;;;;;8.95;1.50;;;22.10;45.10;;;;;;9176298;19;20082;-70
2022/05/08 13:27:21;;;;;;;9.10;1.98;;;22.10;44.70;;;;;;9174917;19;20687;-68
2022/05/08 13:30:26;;;;;;;7.03;1.65;;;22.10;44.80;;;;;;9171340;19;20018;-68
2022/05/08 13:33:35;;;;;;;7.68;1.88;;;22.10;44.60;;;;;;9172828;19;20018;-71
2022/05/08 13:36:43;;;;;;;6.13;1.75;;;22.10;44.30;;;;;;9170570;19;20015;-70
2022/05/08 13:39:55;;;;;;;7.18;1.35;;;22.10;44.50;;;;;;9177192;19;20018;-69
2022/05/08 13:43:01;;;;;;;8.95;1.73;;;22.10;44.30;;;;;;9179303;19;20058;-68
2022/05/08 13:46:06;;;;;;;6.10;1.70;;;21.90;44.30;;;;;;9183333;19;20488;-69
2022/05/08 13:49:14;;;;;;;8.75;1.67;;;22.00;44.20;;;;;;9182887;19;20484;-69
2022/05/08 13:52:30;;;;;;;6.38;1.52;;;22.00;44.30;;;;;;9182112;19;20014;-69
2022/05/08 13:55:43;;;;;;;8.40;2.25;;;22.10;44.10;;;;;;9184233;19;20022;-70
2022/05/08 13:58:50;;;;;;;12.02;1.90;;;22.00;43.70;;;;;;9179320;19;20018;-69
2022/05/08 14:01:55;;;;;;;15.07;2.67;;;22.00;43.80;;;;;;9178686;19;20014;-70
2022/05/08 14:05:02;;;;;;;6.57;1.65;;;22.00;43.60;;;;;;9179743;19;20014;-70
2022/05/08 14:08:09;;;;;;;7.80;1.58;;;21.90;43.50;;;;;;9185313;19;20010;-69
2022/05/08 14:11:17;;;;;;;8.68;1.92;;;21.90;43.60;;;;;;9177441;19;20034;-72
2022/05/08 14:14:25;;;;;;;10.90;1.42;;;21.90;43.20;;;;;;9176706;19;20476;-71
2022/05/08 14:17:41;;;;;;;9.80;2.00;;;21.90;43.30;;;;;;9176549;19;20105;-71
2022/05/08 14:20:47;;;;;;;6.13;1.65;;;21.80;43.20;;;;;;9178843;19;20072;-70
2022/05/08 14:23:52;;;;;;;10.43;2.20;;;21.80;43.10;;;;;;9182745;19;20023;-70
2022/05/08 14:27:01;;;;;;;6.30;1.75;;;21.80;43.00;;;;;;9184352;19;20057;-70
2022/05/08 14:30:09;;;;;;;9.68;1.40;;;21.80;42.90;;;;;;9185354;19;20022;-69
2022/05/08 14:36:33;;;;;;;9.00;1.80;;;21.70;42.80;;;;;;9182059;19;20018;-69
2022/05/08 14:39:38;;;;;;;4.93;1.40;;;21.80;42.80;;;;;;9184817;19;20018;-69
2022/05/08 14:42:48;;;;;;;5.43;1.52;;;21.70;42.50;;;;;;9178544;19;20011;-73
2022/05/08 14:45:56;;;;;;;9.48;1.67;;;21.70;42.20;;;;;;9177540;19;20028;-77
2022/05/08 14:49:01;;;;;;;6.20;1.67;;;21.70;42.40;;;;;;9176302;19;20033;-74
2022/05/08 14:52:07;;;;;;;12.10;2.10;;;21.60;42.20;;;;;;9173424;19;20048;-66
2022/05/08 14:55:13;;;;;;;7.75;2.25;;;21.60;42.10;;;;;;9174226;19;20015;-71
2022/05/08 14:58:23;;;;;;;4.43;1.70;;;21.60;42.10;;;;;;9178029;19;20022;-69
2022/05/08 15:01:29;;;;;;;7.32;2.05;;;21.40;42.10;;;;;;9178070;19;20011;-69
2022/05/08 15:04:37;;;;;;;14.52;3.05;;;21.50;42.10;;;;;;9173525;19;20398;-70
2022/05/08 15:07:42;;;;;;;9.40;1.80;;;21.50;42.10;;;;;;9176336;19;20023;-67
2022/05/08 15:10:49;;;;;;;6.80;1.90;;;21.50;42.30;;;;;;9174631;19;20502;-68
2022/05/08 15:13:57;;;;;;;8.43;1.58;;;21.20;42.00;;;;;;9175288;19;20078;-68
2022/05/08 15:17:03;;;;;;;10.10;2.00;;;21.30;42.00;;;;;;9171871;19;20086;-68
2022/05/08 15:20:12;;;;;;;7.90;2.00;;;21.40;42.60;;;;;;9172620;19;20024;-70
2022/05/08 15:23:17;;;;;;;7.88;2.00;;;22.10;42.40;;;;;;9171796;19;20082;-69
2022/05/08 15:26:27;;;;;;;12.27;2.08;;;21.40;42.20;;;;;;9173123;19;20078;-68
2022/05/08 15:29:37;;;;;;;7.57;1.75;;;21.30;42.90;;;;;;9172898;19;20015;-69
2022/05/08 15:32:43;;;;;;;8.20;2.00;;;21.00;41.80;;;;;;9173059;19;20533;-70
2022/05/08 15:35:49;;;;;;;7.40;1.98;;;21.30;42.10;;;;;;9173593;19;20026;-68
2022/05/08 15:38:54;;;;;;;8.68;1.77;;;21.30;42.10;;;;;;9174324;19;20036;-68
2022/05/08 15:41:59;;;;;;;7.80;1.58;;;21.30;42.20;;;;;;9173082;19;20021;-68
2022/05/08 15:45:17;;;;;;;17.15;2.53;;;21.20;42.10;;;;;;9176710;19;20014;-69
2022/05/08 15:48:22;;;;;;;10.85;1.70;;;21.20;42.00;;;;;;9177080;19;20018;-71
2022/05/08 15:51:27;;;;;;;7.65;1.88;;;21.20;42.20;;;;;;9174402;19;20806;-69
2022/05/08 15:54:32;;;;;;;11.90;2.40;;;21.10;42.10;;;;;;9176586;19;20010;-69
2022/05/08 15:57:38;;;;;;;8.57;2.20;;;21.10;42.20;;;;;;9178087;19;20094;-69
2022/05/08 16:00:46;;;;;;;5.20;2.03;;;21.10;42.10;;;;;;9177027;19;20010;-69
2022/05/08 16:03:52;;;;;;;9.90;1.75;;;21.10;42.30;;;;;;9171208;19;20014;-69
2022/05/08 16:06:58;;;;;;;9.75;1.33;;;21.00;42.20;;;;;;9174916;19;20014;-68
2022/05/08 16:10:03;;;;;;;6.90;2.38;;;21.00;42.10;;;;;;9175849;19;20018;-68
2022/05/08 16:23:17;;;;;;;8.57;1.90;;;20.70;42.40;;;;;;9171725;19;20028;-68
2022/05/08 16:26:24;;;;;;;10.05;2.20;;;20.70;42.50;;;;;;9175346;19;20018;-70
2022/05/08 16:29:32;;;;;;;10.38;2.10;;;20.60;42.50;;;;;;9174132;19;20018;-70
2022/05/08 16:32:40;;;;;;;16.85;2.28;;;20.50;42.40;;;;;;9173194;19;20025;-69
2022/05/08 16:35:45;;;;;;;10.82;1.98;;;20.50;42.30;;;;;;9174435;19;20018;-69
2022/05/08 16:38:52;;;;;;;6.72;1.73;;;20.50;42.50;;;;;;9172745;19;20019;-69
2022/05/08 16:42:02;;;;;;;7.82;2.10;;;20.50;42.60;;;;;;9168057;19;20018;-69
2022/05/08 16:45:10;;;;;;;8.38;1.95;;;20.40;42.50;;;;;;9173474;19;20397;-69